createdAt,value
2022-08-07T00:01:12.578Z,11.35
2022-08-07T00:06:29.499Z,12.57
2022-08-07T00:11:47.822Z,13.50
2022-08-07T00:16:57.147Z,12.38
2022-08-07T00:22:02.111Z,13.77
2022-08-07T00:27:07.797Z,13.27
2022-08-07T00:32:13.632Z,12.00
2022-08-07T00:37:16.210Z,10.98
2022-08-07T00:42:20.547Z,10.85
2022-08-07T00:48:08.218Z,10.43
2022-08-07T00:52:54.571Z,11.07
2022-08-07T00:57:57.870Z,12.07
2022-08-07T01:03:00.461Z,15.15
2022-08-07T01:08:03.863Z,15.70
2022-08-07T01:13:07.108Z,16.35
2022-08-07T01:18:09.737Z,15.63
2022-08-07T01:23:16.553Z,16.63
2022-08-07T01:28:28.987Z,13.98
2022-08-07T01:33:55.191Z,14.32
2022-08-07T01:38:59.002Z,15.60
2022-08-07T01:44:03.505Z,16.42
2022-08-07T01:49:11.894Z,13.15
2022-08-07T01:54:36.438Z,13.43
2022-08-07T01:59:47.152Z,13.95
2022-08-07T02:04:58.398Z,16.27
2022-08-07T02:10:08.791Z,15.68
2022-08-07T02:15:22.974Z,15.60
2022-08-07T02:20:28.952Z,14.57
2022-08-07T02:26:31.202Z,13.95
2022-08-07T02:31:28.492Z,14.35
2022-08-07T02:36:31.790Z,13.90
2022-08-07T02:41:50.481Z,14.80
2022-08-07T02:47:00.895Z,14.23
2022-08-07T02:52:10.636Z,12.77
2022-08-07T02:57:19.678Z,12.50
2022-08-07T03:02:25.495Z,16.48
2022-08-07T03:08:05.262Z,14.73
2022-08-07T03:12:57.785Z,13.93
2022-08-07T03:18:05.976Z,12.80
2022-08-07T03:23:19.165Z,14.45
2022-08-07T03:28:37.486Z,13.43
2022-08-07T03:33:43.285Z,12.45
2022-08-07T03:38:48.355Z,12.63
2022-08-07T03:43:57.238Z,13.23
2022-08-07T03:49:04.668Z,16.27
2022-08-07T03:54:35.191Z,20.95
2022-08-07T04:00:01.283Z,23.65
2022-08-07T04:05:05.456Z,22.33
2022-08-07T04:10:15.393Z,21.10
2022-08-07T04:15:23.931Z,18.38
2022-08-07T04:20:29.343Z,17.13
2022-08-07T04:25:39.152Z,16.45
2022-08-07T04:30:57.157Z,18.20
2022-08-07T04:36:09.316Z,16.38
2022-08-07T04:41:19.201Z,15.23
2022-08-07T04:46:40.012Z,15.50
2022-08-07T04:52:07.915Z,13.68
2022-08-07T04:58:13.687Z,11.45
2022-08-07T05:02:52.187Z,12.27
2022-08-07T05:08:00.765Z,12.60
2022-08-07T05:14:44.753Z,11.88
2022-08-07T05:18:35.633Z,12.05
2022-08-07T05:23:41.971Z,10.82
2022-08-07T05:28:50.323Z,12.18
2022-08-07T05:34:04.934Z,10.70
2022-08-07T05:40:07.141Z,12.02
2022-08-07T05:44:46.492Z,12.02
2022-08-07T05:49:57.605Z,11.77
2022-08-07T05:55:10.463Z,11.55
2022-08-07T06:00:19.312Z,10.95
2022-08-07T06:05:32.870Z,10.45
2022-08-07T06:10:43.633Z,9.73
2022-08-07T06:15:49.908Z,10.63
2022-08-07T06:22:15.860Z,9.40
2022-08-07T06:26:27.451Z,9.85
2022-08-07T06:31:46.951Z,8.48
2022-08-07T06:36:55.267Z,8.20
2022-08-07T06:42:07.660Z,8.95
2022-08-07T06:47:48.323Z,8.48
2022-08-07T06:54:11.718Z,8.48
2022-08-07T06:58:34.499Z,8.38
2022-08-07T07:03:48.853Z,8.30
2022-08-07T07:08:54.394Z,9.05
2022-08-07T07:14:02.209Z,9.05
2022-08-07T07:19:54.364Z,10.13
2022-08-07T07:24:32.153Z,10.35
2022-08-07T07:29:56.217Z,8.63
2022-08-07T07:35:03.956Z,7.40
2022-08-07T07:40:15.561Z,6.70
2022-08-07T07:45:22.801Z,6.80
2022-08-07T07:50:46.676Z,6.68
2022-08-07T07:56:00.669Z,6.55
2022-08-07T08:02:01.530Z,6.93
2022-08-07T08:06:29.038Z,6.60
2022-08-07T08:11:59.250Z,6.50
2022-08-07T08:17:56.447Z,6.40
2022-08-07T08:22:55.707Z,6.43
2022-08-07T08:28:03.920Z,6.70
2022-08-07T08:33:10.305Z,8.60
2022-08-07T08:38:21.601Z,6.57
2022-08-07T08:43:42.031Z,7.25
2022-08-07T08:48:54.516Z,6.55
2022-08-07T08:54:04.597Z,6.18
2022-08-07T08:59:17.260Z,5.80
2022-08-07T09:04:30.391Z,6.35
2022-08-07T09:09:47.737Z,6.63
2022-08-07T09:16:24.255Z,6.05
2022-08-07T09:20:35.244Z,5.70
2022-08-07T09:25:54.493Z,5.72
2022-08-07T09:31:03.944Z,5.80
2022-08-07T09:36:15.220Z,5.57
2022-08-07T09:41:28.565Z,5.35
2022-08-07T09:47:51.361Z,6.68
2022-08-07T09:52:35.462Z,5.35
2022-08-07T09:58:16.732Z,5.30
2022-08-07T10:04:06.114Z,4.65
2022-08-07T10:09:42.951Z,5.20
2022-08-07T10:15:15.345Z,4.75
2022-08-07T10:20:39.335Z,4.50
2022-08-07T10:26:01.567Z,4.88
2022-08-07T10:31:20.076Z,4.07
2022-08-07T10:36:38.896Z,3.92
2022-08-07T10:41:53.271Z,3.83
2022-08-07T10:47:26.636Z,3.85
2022-08-07T10:52:42.654Z,3.55
2022-08-07T10:58:03.864Z,3.80
2022-08-07T11:03:15.483Z,3.50
2022-08-07T11:08:32.524Z,3.35
2022-08-07T11:14:42.685Z,3.60
2022-08-07T11:19:10.167Z,3.30
2022-08-07T11:24:22.080Z,3.05
2022-08-07T11:29:42.925Z,3.15
2022-08-07T11:34:50.952Z,3.08
2022-08-07T11:40:11.298Z,3.05
2022-08-07T11:45:35.406Z,2.60
2022-08-07T11:50:57.906Z,2.75
2022-08-07T11:56:26.659Z,2.65
2022-08-07T12:02:00.998Z,2.55
2022-08-07T12:07:20.233Z,3.38
2022-08-07T12:12:37.994Z,2.85
2022-08-07T12:17:58.962Z,2.78
2022-08-07T12:24:06.129Z,2.47
2022-08-07T12:28:53.885Z,2.53
2022-08-07T12:34:01.796Z,2.55
2022-08-07T12:39:09.493Z,2.00
2022-08-07T12:44:32.894Z,2.83
2022-08-07T12:49:51.715Z,2.15
2022-08-07T12:55:05.221Z,2.53
2022-08-07T13:00:20.997Z,2.58
2022-08-07T13:06:04.081Z,2.20
2022-08-07T13:11:24.751Z,2.80
2022-08-07T13:16:37.737Z,2.40
2022-08-07T13:21:54.951Z,2.80
2022-08-07T13:27:13.459Z,2.70
2022-08-07T13:32:32.368Z,2.50
2022-08-07T13:37:55.513Z,3.00
2022-08-07T13:43:05.658Z,2.80
2022-08-07T13:48:27.416Z,2.47
2022-08-07T13:54:00.516Z,2.65
2022-08-07T13:59:13.248Z,2.58
2022-08-07T14:04:21.437Z,3.05
2022-08-07T14:10:14.897Z,2.67
2022-08-07T14:15:02.407Z,2.38
2022-08-07T14:20:41.260Z,2.72
2022-08-07T14:25:47.964Z,2.70
2022-08-07T14:30:53.099Z,2.60
2022-08-07T14:36:01.247Z,2.85
2022-08-07T14:41:12.394Z,2.40
2022-08-07T14:46:30.533Z,3.20
2022-08-07T14:52:04.791Z,2.30
2022-08-07T14:57:14.919Z,2.65
2022-08-07T15:07:50.831Z,4.90
2022-08-07T15:12:54.633Z,2.80
2022-08-07T15:18:14.420Z,2.63
2022-08-07T15:25:15.442Z,3.50
2022-08-07T15:30:06.372Z,3.35
2022-08-07T15:34:28.029Z,2.13
2022-08-07T15:45:09.424Z,2.50
2022-08-07T15:55:53.654Z,2.03
2022-08-07T16:01:08.986Z,2.10
2022-08-07T16:06:14.374Z,2.00
2022-08-07T16:11:40.184Z,2.05
2022-08-07T16:16:57.039Z,1.90
2022-08-07T16:22:17.924Z,2.17
2022-08-07T16:27:44.222Z,1.95
2022-08-07T16:32:54.615Z,1.83
2022-08-07T16:38:59.994Z,1.70
2022-08-07T16:44:57.269Z,2.08
2022-08-07T16:50:36.906Z,2.70
2022-08-07T16:55:53.795Z,2.08
2022-08-07T17:01:19.095Z,1.90
2022-08-07T17:06:58.094Z,2.17
2022-08-07T17:12:44.765Z,1.77
2022-08-07T17:17:50.468Z,2.15
2022-08-07T17:23:08.563Z,2.00
2022-08-07T17:28:22.410Z,2.17
2022-08-07T17:34:09.757Z,2.00
2022-08-07T17:39:10.479Z,1.98
2022-08-07T17:44:33.980Z,1.92
2022-08-07T17:49:58.642Z,2.30
2022-08-07T17:55:12.606Z,1.83
2022-08-07T18:00:32.975Z,2.05
2022-08-07T18:06:03.549Z,2.00
2022-08-07T18:12:17.962Z,2.10
2022-08-07T18:16:58.047Z,2.38
2022-08-07T18:22:15.241Z,2.13
2022-08-07T18:27:38.345Z,1.90
2022-08-07T18:33:22.281Z,2.13
2022-08-07T18:38:56.080Z,2.40
2022-08-07T18:44:12.863Z,1.90
2022-08-07T18:50:19.375Z,2.20
2022-08-07T18:54:58.941Z,2.22
2022-08-07T19:00:34.613Z,2.20
2022-08-07T19:06:03.266Z,2.20
2022-08-07T19:11:35.130Z,2.63
2022-08-07T19:17:04.826Z,3.03
2022-08-07T19:22:30.363Z,2.97
2022-08-07T19:28:56.497Z,2.88
2022-08-07T19:33:13.094Z,2.75
2022-08-07T19:38:21.110Z,2.60
2022-08-07T19:43:49.272Z,2.80
2022-08-07T19:49:06.423Z,2.78
2022-08-07T19:54:32.522Z,2.58
2022-08-07T19:59:40.919Z,3.00
2022-08-07T20:04:50.205Z,3.20
2022-08-07T20:10:35.528Z,2.58
2022-08-07T20:15:32.943Z,2.97
2022-08-07T20:20:43.691Z,2.80
2022-08-07T20:25:51.141Z,2.67
2022-08-07T20:30:58.649Z,2.88
2022-08-07T20:36:07.878Z,3.00
2022-08-07T20:41:14.981Z,2.70
2022-08-07T20:46:25.958Z,3.00
2022-08-07T20:51:40.656Z,3.00
2022-08-07T20:56:56.855Z,3.13
2022-08-07T21:02:04.626Z,2.78
2022-08-07T21:07:23.387Z,2.90
2022-08-07T21:12:31.397Z,3.10
2022-08-07T21:18:02.818Z,3.40
2022-08-07T21:23:09.086Z,2.88
2022-08-07T21:28:47.627Z,3.20
2022-08-07T21:33:46.163Z,3.72
2022-08-07T21:39:03.011Z,3.50
2022-08-07T21:44:37.240Z,3.85
2022-08-07T21:50:02.154Z,3.67
2022-08-07T21:55:29.932Z,3.83
2022-08-07T22:00:34.879Z,3.35
2022-08-07T22:05:49.936Z,3.05
2022-08-07T22:11:00.814Z,3.40
2022-08-07T22:16:45.175Z,3.65
2022-08-07T22:22:05.177Z,4.10
2022-08-07T22:27:15.976Z,3.50
2022-08-07T22:32:27.813Z,3.10
2022-08-07T22:38:01.942Z,3.45
2022-08-07T22:43:12.900Z,3.25
2022-08-07T22:48:54.928Z,2.95
2022-08-07T22:54:07.450Z,3.42
2022-08-07T22:59:50.275Z,3.20
2022-08-07T23:06:09.012Z,3.00
2022-08-07T23:10:42.542Z,3.25
2022-08-07T23:16:06.385Z,3.38
2022-08-07T23:21:29.868Z,3.45
2022-08-07T23:26:56.281Z,3.58
2022-08-07T23:34:19.635Z,3.80
2022-08-07T23:38:14.392Z,4.07
2022-08-07T23:43:51.291Z,4.82
2022-08-07T23:49:49.925Z,5.45
2022-08-07T23:55:00.801Z,5.53
